createdAt,value
2019-05-18T00:01:44.164Z,23.37
2019-05-18T00:04:13.239Z,24.27
2019-05-18T00:06:40.160Z,23.93
2019-05-18T00:09:06.302Z,22.33
2019-05-18T00:11:32.671Z,21.90
2019-05-18T00:13:58.751Z,22.83
2019-05-18T00:16:29.909Z,25.13
2019-05-18T00:18:55.916Z,26.27
2019-05-18T00:21:21.963Z,28.57
2019-05-18T00:23:47.971Z,24.47
2019-05-18T00:26:13.991Z,26.90
2019-05-18T00:28:41.821Z,23.03
2019-05-18T00:31:07.909Z,24.33
2019-05-18T00:33:33.958Z,26.77
2019-05-18T00:36:00.065Z,26.70
2019-05-18T00:38:26.071Z,26.60
2019-05-18T00:40:52.785Z,26.20
2019-05-18T00:43:19.051Z,27.63
2019-05-18T00:45:45.078Z,26.10
2019-05-18T00:48:11.220Z,26.53
2019-05-18T00:50:37.367Z,23.63
2019-05-18T00:53:03.398Z,25.00
2019-05-18T00:55:29.421Z,26.03
2019-05-18T00:57:55.456Z,25.13
2019-05-18T01:00:21.472Z,21.57
2019-05-18T01:02:47.496Z,26.53
2019-05-18T01:05:13.722Z,23.53
2019-05-18T01:07:39.735Z,25.37
2019-05-18T01:10:05.889Z,25.03
2019-05-18T01:12:32.238Z,24.07
2019-05-18T01:14:58.270Z,27.07
2019-05-18T01:17:25.866Z,23.70
2019-05-18T01:19:52.282Z,28.87
2019-05-18T01:22:18.346Z,26.93
2019-05-18T01:24:44.364Z,23.43
2019-05-18T01:27:10.467Z,24.47
2019-05-18T01:29:36.492Z,25.67
2019-05-18T01:32:02.849Z,25.20
2019-05-18T01:34:29.775Z,23.77
2019-05-18T01:36:55.797Z,23.63
2019-05-18T01:39:21.887Z,26.30
2019-05-18T01:41:48.953Z,20.80
2019-05-18T01:44:14.990Z,25.73
2019-05-18T01:46:41.011Z,30.43
2019-05-18T01:49:07.455Z,34.10
2019-05-18T01:51:33.460Z,28.67
2019-05-18T01:53:59.471Z,28.13
2019-05-18T01:56:25.628Z,28.17
2019-05-18T01:58:51.650Z,24.70
2019-05-18T02:01:17.660Z,26.43
2019-05-18T02:03:43.896Z,26.23
2019-05-18T02:06:13.421Z,28.43
2019-05-18T02:08:39.568Z,23.60
2019-05-18T02:11:05.619Z,26.10
2019-05-18T02:13:31.635Z,24.53
2019-05-18T02:15:57.647Z,26.87
2019-05-18T02:18:29.059Z,25.70
2019-05-18T02:20:51.619Z,25.90
2019-05-18T02:23:17.643Z,23.67
2019-05-18T02:25:43.684Z,22.13
2019-05-18T02:28:09.715Z,26.40
2019-05-18T02:30:35.768Z,23.80
2019-05-18T02:33:01.869Z,25.30
2019-05-18T02:35:27.975Z,19.83
2019-05-18T02:37:55.966Z,21.97
2019-05-18T02:40:22.177Z,19.93
2019-05-18T02:42:48.528Z,23.33
2019-05-18T02:45:33.642Z,21.03
2019-05-18T02:47:59.808Z,19.67
2019-05-18T02:50:25.819Z,21.20
2019-05-18T02:52:52.733Z,19.00
2019-05-18T02:55:18.749Z,20.20
2019-05-18T02:57:45.052Z,24.40
2019-05-18T03:00:11.215Z,22.27
2019-05-18T03:02:37.243Z,24.80
2019-05-18T03:05:06.267Z,21.93
2019-05-18T03:07:32.340Z,24.40
2019-05-18T03:09:58.339Z,24.43
2019-05-18T03:12:24.352Z,23.03
2019-05-18T03:14:50.464Z,27.27
2019-05-18T03:17:16.476Z,21.73
2019-05-18T03:19:42.764Z,23.07
2019-05-18T03:22:08.795Z,22.53
2019-05-18T03:24:34.809Z,21.70
2019-05-18T03:27:00.824Z,23.40
2019-05-18T03:29:26.844Z,26.93
2019-05-18T03:31:52.912Z,23.33
2019-05-18T03:34:19.401Z,23.33
2019-05-18T03:36:45.526Z,22.77
2019-05-18T03:39:11.541Z,21.07
2019-05-18T03:41:37.547Z,26.90
2019-05-18T03:44:03.836Z,20.53
2019-05-18T03:46:30.139Z,24.07
2019-05-18T03:48:56.157Z,26.23
2019-05-18T03:51:22.264Z,26.47
2019-05-18T03:53:48.282Z,23.23
2019-05-18T03:56:14.295Z,22.27
2019-05-18T03:58:40.341Z,24.77
2019-05-18T04:01:06.337Z,24.40
2019-05-18T04:03:32.609Z,20.17
2019-05-18T04:05:58.647Z,22.17
2019-05-18T04:08:24.659Z,28.20
2019-05-18T04:10:50.664Z,20.87
2019-05-18T04:13:16.800Z,25.67
2019-05-18T04:15:42.825Z,25.77
2019-05-18T04:18:08.824Z,22.37
2019-05-18T04:20:34.865Z,27.20
2019-05-18T04:23:00.872Z,26.40
2019-05-18T04:25:26.885Z,22.83
2019-05-18T04:27:53.021Z,23.77
2019-05-18T04:30:19.032Z,24.50
2019-05-18T04:32:45.084Z,23.57
2019-05-18T04:35:11.471Z,20.13
2019-05-18T04:37:37.550Z,21.80
2019-05-18T04:40:04.664Z,21.30
2019-05-18T04:42:31.271Z,23.63
2019-05-18T04:44:57.588Z,23.47
2019-05-18T04:47:23.588Z,21.77
2019-05-18T04:50:04.319Z,23.33
2019-05-18T04:52:17.528Z,25.30
2019-05-18T04:54:43.539Z,26.47
2019-05-18T04:57:09.951Z,22.37
2019-05-18T04:59:36.259Z,24.87
2019-05-18T05:02:02.307Z,25.93
2019-05-18T05:04:28.341Z,25.53
2019-05-18T05:06:54.347Z,22.57
2019-05-18T05:09:20.356Z,22.20
2019-05-18T05:11:46.462Z,25.47
2019-05-18T05:14:12.475Z,26.10
2019-05-18T05:16:38.494Z,21.20
2019-05-18T05:19:04.714Z,22.43
2019-05-18T05:21:30.776Z,21.17
2019-05-18T05:23:56.831Z,24.40
2019-05-18T05:26:23.201Z,23.23
2019-05-18T05:28:49.285Z,24.97
2019-05-18T05:31:15.295Z,21.10
2019-05-18T05:33:41.739Z,19.93
2019-05-18T05:36:08.214Z,18.80
2019-05-18T05:38:34.255Z,21.00
2019-05-18T05:41:00.395Z,18.83
2019-05-18T05:43:26.411Z,22.37
2019-05-18T05:45:52.428Z,22.17
2019-05-18T05:48:18.473Z,20.93
2019-05-18T05:50:44.499Z,21.93
2019-05-18T05:53:10.576Z,21.83
2019-05-18T05:55:36.650Z,19.10
2019-05-18T05:58:02.753Z,19.37
2019-05-18T06:00:28.769Z,20.13
2019-05-18T06:02:55.164Z,16.67
2019-05-18T06:05:21.295Z,19.70
2019-05-18T06:07:47.379Z,21.37
2019-05-18T06:10:13.416Z,22.23
2019-05-18T06:12:39.444Z,21.10
2019-05-18T06:15:06.659Z,21.43
2019-05-18T06:17:32.703Z,18.63
2019-05-18T06:19:58.711Z,18.70
2019-05-18T06:22:24.733Z,21.03
2019-05-18T06:24:50.758Z,20.50
2019-05-18T06:27:16.791Z,21.90
2019-05-18T06:29:42.812Z,20.73
2019-05-18T06:32:08.913Z,23.23
2019-05-18T06:34:34.976Z,21.67
2019-05-18T06:37:01.518Z,19.40
2019-05-18T06:39:27.694Z,19.10
2019-05-18T06:41:54.077Z,21.50
2019-05-18T06:44:20.086Z,18.30
2019-05-18T06:46:46.199Z,18.87
2019-05-18T06:49:12.244Z,17.47
2019-05-18T06:51:38.347Z,17.40
2019-05-18T06:54:05.271Z,17.50
2019-05-18T06:56:35.276Z,18.83
2019-05-18T06:59:04.725Z,17.13
2019-05-18T07:01:30.945Z,17.17
2019-05-18T07:03:56.955Z,20.17
2019-05-18T07:06:22.991Z,20.60
2019-05-18T07:08:49.335Z,16.37
2019-05-18T07:11:15.720Z,18.23
2019-05-18T07:13:41.803Z,20.67
2019-05-18T07:16:07.831Z,16.73
2019-05-18T07:18:34.144Z,18.37
2019-05-18T07:21:00.163Z,16.50
2019-05-18T07:23:26.315Z,14.53
2019-05-18T07:25:52.347Z,18.30
2019-05-18T07:28:18.419Z,20.03
2019-05-18T07:30:44.456Z,15.93
2019-05-18T07:33:10.526Z,17.77
2019-05-18T07:35:36.557Z,16.33
2019-05-18T07:38:02.954Z,17.87
2019-05-18T07:40:28.977Z,16.77
2019-05-18T07:42:55.092Z,15.73
2019-05-18T07:45:23.694Z,15.73
2019-05-18T07:47:49.727Z,15.70
2019-05-18T07:50:15.750Z,18.10
2019-05-18T07:52:41.932Z,17.77
2019-05-18T07:55:08.443Z,15.97
2019-05-18T07:57:34.459Z,17.70
2019-05-18T08:00:00.603Z,15.37
2019-05-18T08:02:31.465Z,14.70
2019-05-18T08:04:57.495Z,13.93
2019-05-18T08:07:23.654Z,15.33
2019-05-18T08:09:49.690Z,13.87
2019-05-18T08:12:20.479Z,14.67
2019-05-18T08:14:52.638Z,13.70
2019-05-18T08:17:18.656Z,14.87
2019-05-18T08:19:44.673Z,13.23
2019-05-18T08:22:10.728Z,11.87
2019-05-18T08:24:36.734Z,10.23
2019-05-18T08:27:03.079Z,10.20
2019-05-18T08:29:29.142Z,10.30
2019-05-18T08:31:55.176Z,12.20
2019-05-18T08:34:21.243Z,13.43
2019-05-18T08:36:47.296Z,13.17
2019-05-18T08:39:18.286Z,13.20
2019-05-18T08:41:44.302Z,10.97
2019-05-18T08:44:10.350Z,11.83
2019-05-18T08:46:36.358Z,9.83
2019-05-18T08:49:02.458Z,10.90
2019-05-18T08:51:28.490Z,31.13
2019-05-18T08:53:54.519Z,11.40
2019-05-18T08:56:20.549Z,11.30
2019-05-18T08:58:46.588Z,12.40
2019-05-18T09:01:12.618Z,11.70
2019-05-18T09:03:38.631Z,13.13
2019-05-18T09:06:06.955Z,12.73
2019-05-18T09:08:32.971Z,12.00
2019-05-18T09:10:59.019Z,10.97
2019-05-18T09:13:25.091Z,12.60
2019-05-18T09:15:51.216Z,10.07
2019-05-18T09:18:17.304Z,10.73
2019-05-18T09:20:43.482Z,10.97
2019-05-18T09:23:09.587Z,10.03
2019-05-18T09:25:35.635Z,10.73
2019-05-18T09:28:01.673Z,10.57
2019-05-18T09:30:27.723Z,9.40
2019-05-18T09:32:53.847Z,9.53
2019-05-18T09:35:21.062Z,9.90
2019-05-18T09:37:47.115Z,11.27
2019-05-18T09:40:14.858Z,8.90
2019-05-18T09:42:41.027Z,7.93
2019-05-18T09:45:08.338Z,8.67
2019-05-18T09:47:34.349Z,9.73
2019-05-18T09:50:00.374Z,9.50
2019-05-18T09:52:43.644Z,10.80
2019-05-18T09:54:54.323Z,9.07
2019-05-18T09:57:20.359Z,9.53
2019-05-18T09:59:46.448Z,9.97
2019-05-18T10:02:12.741Z,9.40
2019-05-18T10:04:38.853Z,7.03
2019-05-18T10:07:07.571Z,8.80
2019-05-18T10:09:39.274Z,8.73
2019-05-18T10:12:01.854Z,7.57
2019-05-18T10:14:27.877Z,8.50
2019-05-18T10:16:54.690Z,7.50
2019-05-18T10:19:20.743Z,8.50
2019-05-18T10:21:46.761Z,8.30
2019-05-18T10:24:12.775Z,8.60
2019-05-18T10:26:38.884Z,7.70
2019-05-18T10:29:04.903Z,9.07
2019-05-18T10:31:30.936Z,8.90
2019-05-18T10:33:58.860Z,8.00
2019-05-18T10:36:26.957Z,7.50
2019-05-18T10:38:57.813Z,6.70
2019-05-18T10:41:24.588Z,7.23
2019-05-18T10:43:53.754Z,7.00
2019-05-18T10:46:19.843Z,7.60
2019-05-18T10:48:45.881Z,7.73
2019-05-18T10:51:11.961Z,7.43
2019-05-18T10:53:37.983Z,7.40
2019-05-18T10:56:04.897Z,7.07
2019-05-18T10:58:33.426Z,6.93
2019-05-18T11:00:59.713Z,6.07
2019-05-18T11:03:25.842Z,5.97
2019-05-18T11:05:51.869Z,6.78
2019-05-18T11:08:17.945Z,7.50
2019-05-18T11:10:44.248Z,5.53
2019-05-18T11:13:10.291Z,5.15
2019-05-18T11:15:36.339Z,5.35
2019-05-18T11:18:02.554Z,6.75
2019-05-18T11:20:28.585Z,5.60
2019-05-18T11:22:57.299Z,5.10
2019-05-18T11:25:23.406Z,5.00
2019-05-18T11:27:49.428Z,5.17
2019-05-18T11:30:17.356Z,5.80
2019-05-18T11:32:43.379Z,5.15
2019-05-18T11:35:09.460Z,5.58
2019-05-18T11:37:35.475Z,4.87
2019-05-18T11:40:03.744Z,4.25
2019-05-18T11:42:30.092Z,5.37
2019-05-18T11:44:56.110Z,5.10
2019-05-18T11:47:22.573Z,5.33
2019-05-18T11:49:48.711Z,6.12
2019-05-18T11:52:14.710Z,5.58
2019-05-18T11:54:40.746Z,5.78
2019-05-18T11:57:06.786Z,5.85
2019-05-18T11:59:32.912Z,5.60
2019-05-18T12:01:59.217Z,5.50
2019-05-18T12:04:27.904Z,5.90
2019-05-18T12:06:53.941Z,5.70
2019-05-18T12:09:20.029Z,5.85
2019-05-18T12:11:46.156Z,5.40
2019-05-18T12:14:13.313Z,5.62
2019-05-18T12:16:39.450Z,5.50
2019-05-18T12:19:07.187Z,5.50
2019-05-18T12:21:33.246Z,5.60
2019-05-18T12:24:14.119Z,5.42
2019-05-18T12:26:32.229Z,5.78
2019-05-18T12:28:58.269Z,5.03
2019-05-18T12:31:24.315Z,5.55
2019-05-18T12:33:50.319Z,4.80
2019-05-18T12:36:16.390Z,5.45
2019-05-18T12:38:42.799Z,4.40
2019-05-18T12:41:09.515Z,4.55
2019-05-18T12:43:36.002Z,4.92
2019-05-18T12:46:02.172Z,4.42
2019-05-18T12:48:28.190Z,5.28
2019-05-18T12:50:54.202Z,5.08
2019-05-18T12:53:20.251Z,4.80
2019-05-18T12:55:46.267Z,5.50
2019-05-18T12:58:12.286Z,4.55
2019-05-18T13:00:38.407Z,3.77
2019-05-18T13:03:04.431Z,3.55
2019-05-18T13:05:30.481Z,3.45
2019-05-18T13:07:56.794Z,3.47
2019-05-18T13:10:22.835Z,2.95
2019-05-18T13:12:48.847Z,5.22
2019-05-18T13:15:16.874Z,3.30
2019-05-18T13:17:42.891Z,3.72
2019-05-18T13:20:09.883Z,3.60
2019-05-18T13:22:36.949Z,2.83
2019-05-18T13:25:04.356Z,2.72
2019-05-18T13:27:39.518Z,4.67
2019-05-18T13:29:58.674Z,3.60
2019-05-18T13:32:24.705Z,3.00
2019-05-18T13:34:50.775Z,4.10
2019-05-18T13:37:17.022Z,4.40
2019-05-18T13:39:43.039Z,3.33
2019-05-18T13:42:09.058Z,2.90
2019-05-18T13:44:38.088Z,3.30
2019-05-18T13:47:04.088Z,3.60
2019-05-18T13:49:30.106Z,2.58
2019-05-18T13:51:56.226Z,2.85
2019-05-18T13:54:22.235Z,2.40
2019-05-18T13:56:48.260Z,3.10
2019-05-18T13:59:14.374Z,2.80
2019-05-18T14:01:40.391Z,2.65
2019-05-18T14:04:06.403Z,2.33
2019-05-18T14:06:32.552Z,2.72
2019-05-18T14:08:58.576Z,3.05
2019-05-18T14:11:24.880Z,3.30
2019-05-18T14:13:51.004Z,2.85
2019-05-18T14:16:17.019Z,2.70
2019-05-18T14:18:43.355Z,2.75
2019-05-18T14:21:09.553Z,3.33
2019-05-18T14:23:35.547Z,3.20
2019-05-18T14:26:01.563Z,3.00
2019-05-18T14:28:27.601Z,3.10
2019-05-18T14:30:53.611Z,4.60
2019-05-18T14:33:19.642Z,2.90
2019-05-18T14:35:45.750Z,3.17
2019-05-18T14:38:11.772Z,2.65
2019-05-18T14:40:37.851Z,2.83
2019-05-18T14:43:05.877Z,2.47
2019-05-18T14:45:33.487Z,2.65
2019-05-18T14:47:59.547Z,2.50
2019-05-18T14:50:25.979Z,2.40
2019-05-18T14:52:51.996Z,2.20
2019-05-18T14:55:32.406Z,2.60
2019-05-18T14:57:47.288Z,3.58
2019-05-18T15:00:13.411Z,6.45
2019-05-18T15:02:39.431Z,7.10
2019-05-18T15:05:09.024Z,6.47
2019-05-18T15:07:35.035Z,6.80
2019-05-18T15:10:01.052Z,7.28
2019-05-18T15:12:27.096Z,7.12
2019-05-18T15:14:53.124Z,6.70
2019-05-18T15:17:19.219Z,6.70
2019-05-18T15:19:45.313Z,7.30
2019-05-18T15:22:11.356Z,7.70
2019-05-18T15:24:37.390Z,8.45
2019-05-18T15:27:03.496Z,8.65
2019-05-18T15:29:29.557Z,10.10
2019-05-18T15:31:55.570Z,9.68
2019-05-18T15:34:21.657Z,11.57
2019-05-18T15:36:47.704Z,9.93
2019-05-18T15:39:13.724Z,10.10
2019-05-18T15:41:39.883Z,11.35
2019-05-18T15:44:05.907Z,20.60
2019-05-18T15:46:32.544Z,11.25
2019-05-18T15:48:58.588Z,9.03
2019-05-18T15:51:31.911Z,8.40
2019-05-18T15:53:58.019Z,9.78
2019-05-18T15:56:24.148Z,8.83
2019-05-18T15:58:50.163Z,8.83
2019-05-18T16:01:16.196Z,8.68
2019-05-18T16:03:42.259Z,8.75
2019-05-18T16:06:08.311Z,11.25
2019-05-18T16:08:34.368Z,8.40
2019-05-18T16:11:01.347Z,7.87
2019-05-18T16:13:29.290Z,8.23
2019-05-18T16:15:55.653Z,10.00
2019-05-18T16:18:21.670Z,9.03
2019-05-18T16:20:50.217Z,8.18
2019-05-18T16:23:16.231Z,8.90
2019-05-18T16:25:43.424Z,8.28
2019-05-18T16:28:09.451Z,9.33
2019-05-18T16:30:35.484Z,9.33
2019-05-18T16:33:01.651Z,8.70
2019-05-18T16:35:27.812Z,9.55
2019-05-18T16:37:53.949Z,9.95
2019-05-18T16:40:20.040Z,9.03
2019-05-18T16:42:46.743Z,9.60
2019-05-18T16:45:13.037Z,10.30
2019-05-18T16:47:45.414Z,10.47
2019-05-18T16:50:11.448Z,9.77
2019-05-18T16:52:37.489Z,10.40
2019-05-18T16:55:06.671Z,10.63
2019-05-18T16:57:32.698Z,12.97
2019-05-18T16:59:58.704Z,10.77
2019-05-18T17:02:31.633Z,11.63
2019-05-18T17:04:52.676Z,12.17
2019-05-18T17:07:18.689Z,11.47
2019-05-18T17:09:44.827Z,10.67
2019-05-18T17:12:10.847Z,11.03
2019-05-18T17:14:36.872Z,10.63
2019-05-18T17:17:03.241Z,11.47
2019-05-18T17:19:29.283Z,11.60
2019-05-18T17:21:55.584Z,10.33
2019-05-18T17:24:21.623Z,11.33
2019-05-18T17:26:52.832Z,11.37
2019-05-18T17:29:15.554Z,10.50
2019-05-18T17:31:41.669Z,11.33
2019-05-18T17:34:07.757Z,11.27
2019-05-18T17:36:33.861Z,11.70
2019-05-18T17:39:00.044Z,11.47
2019-05-18T17:41:26.057Z,12.63
2019-05-18T17:43:52.089Z,11.83
2019-05-18T17:46:18.570Z,12.90
2019-05-18T17:48:45.000Z,11.60
2019-05-18T17:51:11.022Z,12.43
2019-05-18T17:53:38.172Z,12.40
2019-05-18T17:56:04.196Z,43.27
2019-05-18T17:58:30.208Z,20.37
2019-05-18T18:00:56.251Z,13.10
2019-05-18T18:03:22.268Z,63.30
2019-05-18T18:05:48.294Z,13.43
2019-05-18T18:08:14.612Z,63.53
2019-05-18T18:10:40.836Z,24.20
2019-05-18T18:13:09.523Z,15.10
2019-05-18T18:15:35.159Z,14.47
2019-05-18T18:18:01.224Z,14.37
2019-05-18T18:20:27.249Z,14.43
2019-05-18T18:22:53.414Z,14.23
2019-05-18T18:25:19.419Z,15.57
2019-05-18T18:27:45.435Z,14.97
2019-05-18T18:30:11.463Z,15.77
2019-05-18T18:32:37.557Z,15.40
2019-05-18T18:35:04.299Z,14.90
2019-05-18T18:37:30.451Z,14.17
2019-05-18T18:39:56.491Z,17.27
2019-05-18T18:42:22.607Z,18.73
2019-05-18T18:44:48.660Z,15.90
2019-05-18T18:47:14.690Z,15.47
2019-05-18T18:49:40.996Z,16.63
2019-05-18T18:52:07.271Z,16.13
2019-05-18T18:54:33.304Z,17.40
2019-05-18T18:56:59.322Z,16.50
2019-05-18T18:59:25.474Z,17.07
2019-05-18T19:01:51.511Z,17.00
2019-05-18T19:04:17.639Z,17.63
2019-05-18T19:06:43.697Z,17.40
2019-05-18T19:09:09.867Z,16.07
2019-05-18T19:11:35.882Z,17.13
2019-05-18T19:14:03.840Z,16.57
2019-05-18T19:16:29.972Z,18.30
2019-05-18T19:18:56.075Z,17.80
2019-05-18T19:21:22.114Z,18.60
2019-05-18T19:23:48.146Z,17.70
2019-05-18T19:26:14.216Z,17.60
2019-05-18T19:28:40.578Z,17.27
2019-05-18T19:31:06.563Z,16.80
2019-05-18T19:33:32.582Z,17.83
2019-05-18T19:35:58.946Z,17.23
2019-05-18T19:38:25.019Z,16.70
2019-05-18T19:40:51.033Z,17.17
2019-05-18T19:43:17.381Z,17.43
2019-05-18T19:45:43.639Z,16.10
2019-05-18T19:48:09.659Z,17.67
2019-05-18T19:50:37.140Z,18.27
2019-05-18T19:53:03.159Z,17.87
2019-05-18T19:55:29.183Z,17.80
2019-05-18T19:58:08.091Z,16.37
2019-05-18T20:00:23.155Z,43.07
2019-05-18T20:02:49.170Z,17.97
2019-05-18T20:05:15.396Z,17.93
2019-05-18T20:07:41.402Z,19.17
2019-05-18T20:10:07.435Z,18.20
2019-05-18T20:12:33.519Z,17.30
2019-05-18T20:15:11.787Z,19.73
2019-05-18T20:17:43.471Z,19.30
2019-05-18T20:20:09.493Z,18.80
2019-05-18T20:22:35.511Z,19.10
2019-05-18T20:25:01.558Z,19.70
2019-05-18T20:27:27.586Z,20.40
2019-05-18T20:29:53.599Z,20.53
2019-05-18T20:32:19.667Z,19.83
2019-05-18T20:34:45.746Z,21.03
2019-05-18T20:37:11.815Z,19.33
2019-05-18T20:39:37.918Z,25.47
2019-05-18T20:42:03.976Z,22.13
2019-05-18T20:44:30.330Z,20.53
2019-05-18T20:46:56.499Z,20.90
2019-05-18T20:49:22.543Z,20.93
2019-05-18T20:51:51.024Z,18.87
2019-05-18T20:54:17.405Z,21.40
2019-05-18T20:56:43.411Z,22.83
2019-05-18T20:59:09.422Z,22.43
2019-05-18T21:01:35.766Z,20.50
2019-05-18T21:04:01.799Z,19.73
2019-05-18T21:06:27.896Z,18.67
2019-05-18T21:08:53.941Z,21.97
2019-05-18T21:11:19.939Z,22.50
2019-05-18T21:13:45.952Z,22.83
2019-05-18T21:16:12.279Z,19.97
2019-05-18T21:18:38.371Z,21.30
2019-05-18T21:21:07.275Z,21.10
2019-05-18T21:23:33.391Z,21.63
2019-05-18T21:25:59.428Z,22.90
2019-05-18T21:28:25.719Z,22.83
2019-05-18T21:30:51.791Z,24.40
2019-05-18T21:33:17.802Z,22.53
2019-05-18T21:35:43.827Z,20.97
2019-05-18T21:38:10.073Z,23.20
2019-05-18T21:40:36.142Z,21.60
2019-05-18T21:43:02.168Z,23.60
2019-05-18T21:45:28.578Z,22.60
2019-05-18T21:47:54.920Z,24.73
2019-05-18T21:50:23.854Z,23.90
2019-05-18T21:52:50.467Z,21.40
2019-05-18T21:55:18.714Z,23.63
2019-05-18T21:57:46.654Z,23.70
2019-05-18T22:00:12.767Z,22.23
2019-05-18T22:02:43.449Z,24.13
2019-05-18T22:05:12.126Z,24.90
2019-05-18T22:07:38.237Z,24.20
2019-05-18T22:10:05.243Z,25.73
2019-05-18T22:12:31.256Z,24.47
2019-05-18T22:14:57.398Z,22.37
2019-05-18T22:17:23.408Z,23.60
2019-05-18T22:19:49.431Z,24.20
2019-05-18T22:22:15.471Z,25.20
2019-05-18T22:24:41.491Z,26.53
2019-05-18T22:27:07.501Z,25.43
2019-05-18T22:29:33.648Z,23.77
2019-05-18T22:31:59.753Z,26.83
2019-05-18T22:34:33.781Z,25.67
2019-05-18T22:37:11.697Z,26.20
2019-05-18T22:39:37.096Z,25.10
2019-05-18T22:42:09.307Z,23.17
2019-05-18T22:44:35.432Z,23.77
2019-05-18T22:47:04.352Z,26.37
2019-05-18T22:49:30.401Z,25.97
2019-05-18T22:51:56.648Z,25.70
2019-05-18T22:54:23.211Z,24.73
2019-05-18T22:56:49.232Z,28.00
2019-05-18T22:59:15.280Z,23.50
2019-05-18T23:01:41.297Z,25.53
2019-05-18T23:04:07.631Z,24.67
2019-05-18T23:06:33.757Z,27.23
2019-05-18T23:09:00.071Z,27.40
2019-05-18T23:11:26.196Z,28.23
2019-05-18T23:13:53.267Z,30.97
2019-05-18T23:16:19.297Z,26.23
2019-05-18T23:18:56.502Z,26.60
2019-05-18T23:21:13.412Z,30.07
2019-05-18T23:23:39.421Z,31.33
2019-05-18T23:26:05.449Z,28.87
2019-05-18T23:28:31.493Z,30.60
2019-05-18T23:30:57.513Z,28.60
2019-05-18T23:33:23.510Z,30.63
2019-05-18T23:35:49.549Z,29.53
2019-05-18T23:38:15.811Z,32.37
2019-05-18T23:40:41.847Z,30.50
2019-05-18T23:43:07.867Z,29.90
2019-05-18T23:45:36.444Z,33.27
2019-05-18T23:48:02.482Z,27.87
2019-05-18T23:50:38.036Z,34.33
2019-05-18T23:53:04.200Z,30.50
2019-05-18T23:55:33.052Z,33.27
2019-05-18T23:58:04.887Z,30.30
